createdAt,value
2018-11-20T00:07:46.056Z,1.64
2018-11-20T00:18:12.860Z,1.52
2018-11-20T00:28:47.788Z,1.52
2018-11-20T00:39:22.838Z,1.71
2018-11-20T00:50:00.256Z,1.80
2018-11-20T01:00:53.223Z,1.56
2018-11-20T01:11:30.437Z,1.54
2018-11-20T01:22:00.195Z,1.50
2018-11-20T01:32:30.575Z,1.61
2018-11-20T01:43:13.305Z,1.56
2018-11-20T01:53:49.451Z,1.66
2018-11-20T02:04:19.905Z,1.64
2018-11-20T02:14:55.974Z,1.91
2018-11-20T02:25:52.262Z,2.09
2018-11-20T02:36:35.329Z,2.24
2018-11-20T02:47:17.338Z,2.28
2018-11-20T02:58:06.632Z,2.27
2018-11-20T03:08:43.083Z,2.29
2018-11-20T03:19:26.363Z,2.32
2018-11-20T03:31:14.514Z,2.33
2018-11-20T03:41:54.177Z,2.31
2018-11-20T03:52:29.203Z,2.49
2018-11-20T04:03:18.837Z,2.47
2018-11-20T04:13:46.063Z,2.42
2018-11-20T04:24:25.957Z,2.42
2018-11-20T04:35:00.734Z,2.44
2018-11-20T04:45:30.915Z,2.38
2018-11-20T04:56:11.851Z,2.47
2018-11-20T05:06:47.227Z,2.47
2018-11-20T05:17:23.817Z,2.61
2018-11-20T05:28:13.183Z,2.47
2018-11-20T05:38:45.783Z,2.51
2018-11-20T05:49:25.887Z,2.54
2018-11-20T06:00:03.093Z,2.61
2018-11-20T06:10:49.631Z,2.56
2018-11-20T06:21:20.810Z,2.57
2018-11-20T06:31:56.468Z,2.56
2018-11-20T06:42:44.977Z,2.51
2018-11-20T06:53:21.351Z,2.51
2018-11-20T07:03:59.318Z,2.63
2018-11-20T07:14:44.190Z,2.73
2018-11-20T07:25:21.436Z,2.81
2018-11-20T07:36:08.396Z,2.89
2018-11-20T07:46:44.422Z,3.14
2018-11-20T07:57:27.510Z,3.10
2018-11-20T08:08:03.501Z,3.14
2018-11-20T08:18:43.513Z,3.27
2018-11-20T08:29:29.559Z,3.35
2018-11-20T08:40:05.341Z,3.42
2018-11-20T08:50:42.607Z,3.17
2018-11-20T09:01:23.014Z,3.14
2018-11-20T09:12:08.581Z,3.18
2018-11-20T09:22:45.827Z,3.30
2018-11-20T09:33:20.849Z,3.30
2018-11-20T09:44:06.640Z,3.38
2018-11-20T09:54:42.464Z,3.60
2018-11-20T10:05:19.041Z,3.67
2018-11-20T10:15:54.965Z,3.80
2018-11-20T10:26:40.896Z,3.69
2018-11-20T10:38:39.502Z,3.56
2018-11-20T10:49:11.655Z,3.42
2018-11-20T11:00:06.957Z,3.48
2018-11-20T11:10:43.258Z,3.59
2018-11-20T11:21:18.842Z,3.09
2018-11-20T11:31:58.633Z,3.19
2018-11-20T11:42:29.834Z,3.55
2018-11-20T11:53:06.940Z,4.73
2018-11-20T12:03:43.074Z,4.88
2018-11-20T12:14:20.202Z,4.06
2018-11-20T12:24:56.435Z,3.70
2018-11-20T12:35:47.835Z,3.61
2018-11-20T12:46:25.944Z,4.35
2018-11-20T12:57:06.112Z,5.89
2018-11-20T13:07:35.935Z,4.60
2018-11-20T13:18:11.767Z,3.55
2018-11-20T13:28:49.108Z,2.92
2018-11-20T13:39:37.045Z,3.11
2018-11-20T13:50:20.072Z,3.96
2018-11-20T14:01:12.087Z,4.17
2018-11-20T14:11:52.381Z,3.98
2018-11-20T14:22:21.765Z,3.62
2018-11-20T14:32:49.386Z,3.64
2018-11-20T14:43:28.571Z,5.02
2018-11-20T14:54:17.677Z,3.22
2018-11-20T15:04:54.874Z,2.79
2018-11-20T15:15:49.750Z,2.28
2018-11-20T15:26:32.632Z,1.85
2018-11-20T15:37:08.743Z,1.45
2018-11-20T15:47:52.166Z,1.21
2018-11-20T15:58:21.895Z,0.97
2018-11-20T16:09:08.377Z,0.89
2018-11-20T16:19:39.949Z,0.86
2018-11-20T16:30:15.614Z,0.72
2018-11-20T16:40:45.488Z,0.58
2018-11-20T16:51:31.170Z,0.44
2018-11-20T17:02:11.009Z,0.44
2018-11-20T17:12:49.219Z,0.34
2018-11-20T17:23:31.262Z,0.55
2018-11-20T17:34:07.317Z,0.82
2018-11-20T17:44:40.188Z,1.11
2018-11-20T17:55:07.720Z,1.24
2018-11-20T18:05:46.650Z,1.23
2018-11-20T18:16:33.058Z,1.27
2018-11-20T18:27:04.449Z,1.29
2018-11-20T18:37:44.422Z,1.48
2018-11-20T18:48:20.400Z,1.67
2018-11-20T18:59:08.182Z,1.58
2018-11-20T19:10:03.334Z,1.70
2018-11-20T19:20:39.137Z,1.71
2018-11-20T19:31:28.192Z,1.77
2018-11-20T19:42:07.972Z,1.61
2018-11-20T19:53:03.584Z,1.69
2018-11-20T20:03:39.119Z,1.63
2018-11-20T20:14:15.579Z,1.66
2018-11-20T20:24:51.312Z,1.66
2018-11-20T20:35:42.601Z,1.66
2018-11-20T20:46:20.045Z,1.71
2018-11-20T20:56:55.983Z,1.65
2018-11-20T21:07:48.285Z,1.80
2018-11-20T21:18:24.010Z,1.73
2018-11-20T21:29:00.938Z,1.71
2018-11-20T21:39:38.212Z,1.82
2018-11-20T21:50:30.298Z,1.87
2018-11-20T22:01:08.492Z,1.99
2018-11-20T22:11:52.944Z,1.84
2018-11-20T22:22:48.196Z,1.80
2018-11-20T22:33:23.830Z,1.79
2018-11-20T22:44:00.221Z,2.03
2018-11-20T22:54:31.468Z,1.90
2018-11-20T23:05:07.104Z,2.02
2018-11-20T23:15:25.222Z,1.72
2018-11-20T23:25:43.279Z,1.86
2018-11-20T23:36:01.625Z,1.75
2018-11-20T23:46:19.815Z,1.73
2018-11-20T23:56:37.952Z,1.81
